Time;durP1;ratioP1;P1;durP2;ratioP2;P2;SDS_P1;SDS_P2;PMS_P1;PMS_P2;Temp;Humidity;BMP_temperature;BMP_pressure;BME280_temperature;BME280_humidity;BME280_pressure;Samples;Min_cycle;Max_cycle;Signal;HPM_P1;HPM_P2
2022/09/29 00:00:51;;;;;;;17.62;12.23;;;;;;;6.35;90.90;97882.31;1694366;83;21094;-60
2022/09/29 00:03:20;;;;;;;15.03;11.57;;;;;;;6.39;90.91;97882.52;1693881;83;21056;-60
2022/09/29 00:05:49;;;;;;;14.65;12.15;;;;;;;6.44;90.89;97877.89;1670969;84;21206;-60
2022/09/29 00:08:17;;;;;;;14.70;10.65;;;;;;;6.47;90.90;97882.89;1710996;83;21057;-59
2022/09/29 00:10:45;;;;;;;13.53;9.98;;;;;;;6.50;90.91;97880.11;1675778;84;21022;-60
2022/09/29 00:13:12;;;;;;;;;;;;;;;6.49;90.89;97880.19;1709404;83;20963;-60
2022/09/29 00:15:39;;;;;;;13.45;11.12;;;;;;;6.49;90.90;97882.31;1678483;84;20185;-60
2022/09/29 00:18:07;;;;;;;13.00;10.30;;;;;;;6.50;90.91;97881.87;1695332;83;21913;-60
2022/09/29 00:20:34;;;;;;;11.35;10.15;;;;;;;6.47;90.90;97885.48;1688798;84;21702;-60
2022/09/29 00:23:02;;;;;;;11.90;9.93;;;;;;;6.48;90.98;97884.55;1694809;84;21599;-60
2022/09/29 00:28:01;;;;;;;15.63;10.03;;;;;;;6.46;91.00;97881.20;1685137;80;21005;-60
2022/09/29 00:30:28;;;;;;;11.75;10.45;;;;;;;6.47;91.04;97882.06;1681563;82;21124;-60
2022/09/29 00:32:55;;;;;;;12.90;10.65;;;;;;;6.44;90.99;97883.08;1683253;82;21066;-60
2022/09/29 00:35:21;;;;;;;12.28;9.88;;;;;;;6.43;90.98;97888.34;1681861;82;20932;-60
2022/09/29 00:37:48;;;;;;;11.60;9.35;;;;;;;6.40;91.00;97889.36;1681454;82;21062;-60
2022/09/29 00:40:15;;;;;;;13.80;10.30;;;;;;;6.39;91.10;97892.05;1679058;82;21086;-60
2022/09/29 00:42:42;;;;;;;10.23;8.97;;;;;;;6.38;91.13;97893.78;1681119;82;21184;-60
2022/09/29 00:45:22;;;;;;;14.45;9.38;;;;;;;6.45;90.80;97895.11;1688702;82;22080;-60
2022/09/29 00:48:09;;;;;;;13.58;9.75;;;;;;;6.33;91.09;97893.25;1696470;82;21590;-58
2022/09/29 00:50:49;;;;;;;12.82;9.60;;;;;;;6.27;91.12;97885.38;1685237;82;21519;-60
2022/09/29 00:53:19;;;;;;;11.25;8.95;;;;;;;6.26;91.17;97894.52;1686577;82;21665;-61
2022/09/29 00:55:54;;;;;;;13.55;9.18;;;;;;;6.24;91.16;97888.59;1700899;82;21739;-60
2022/09/29 00:58:29;;;;;;;10.98;9.25;;;;;;;6.17;91.09;97889.89;1689153;82;20997;-61
2022/09/29 01:00:56;;;;;;;14.15;10.78;;;;;;;6.12;91.14;97891.91;1683490;82;20983;-60
2022/09/29 01:03:27;;;;;;;12.35;9.55;;;;;;;6.08;91.11;97895.15;1692586;82;20989;-60
2022/09/29 01:05:59;;;;;;;10.10;8.90;;;;;;;6.04;91.19;97897.06;1684358;82;21027;-60
2022/09/29 01:08:43;;;;;;;11.18;9.43;;;;;;;6.01;91.22;97894.66;1689210;82;21705;-61
2022/09/29 01:11:12;;;;;;;12.58;8.13;;;;;;;5.98;91.29;97901.31;1685365;82;21081;-59
2022/09/29 01:13:40;;;;;;;13.25;8.95;;;;;;;5.95;91.29;97894.19;1689151;82;21748;-60
2022/09/29 01:16:07;;;;;;;11.75;8.23;;;;;;;5.91;91.23;97899.12;1690320;82;21089;-60
2022/09/29 01:18:36;;;;;;;10.90;8.50;;;;;;;5.89;91.26;97898.39;1689665;82;21044;-60
2022/09/29 01:21:14;;;;;;;9.85;8.85;;;;;;;6.00;91.00;97899.47;1692155;82;21090;-60
2022/09/29 01:24:15;;;;;;;9.93;8.93;;;;;;;5.86;91.38;97900.70;1686611;82;20994;-60
2022/09/29 01:27:24;;;;;;;9.20;8.15;;;;;;;5.85;91.41;97901.59;1684205;82;21019;-60
2022/09/29 01:30:04;;;;;;;9.28;8.33;;;;;;;5.79;91.40;97897.60;1668858;83;21035;-61
2022/09/29 01:32:54;;;;;;;10.15;8.53;;;;;;;5.76;91.44;97901.66;1672549;83;21039;-60
2022/09/29 01:35:52;;;;;;;8.83;7.92;;;;;;;5.74;91.55;97902.67;1621164;85;21703;-60
2022/09/29 01:38:36;;;;;;;9.53;7.97;;;;;;;5.71;91.55;97905.44;1618394;86;21094;-61
2022/09/29 01:41:43;;;;;;;11.97;8.70;;;;;;;5.68;91.65;97900.43;1615939;85;21135;-61
2022/09/29 01:44:37;;;;;;;;;;;;;;;5.66;91.54;97912.19;1598770;88;21392;-60
2022/09/29 01:47:21;;;;;;;11.05;8.50;;;;;;;5.59;91.47;97911.67;1620678;84;20215;-60
2022/09/29 01:49:59;;;;;;;9.78;7.97;;;;;;;5.55;91.45;97907.61;1624400;86;21094;-61
2022/09/29 01:52:30;;;;;;;10.60;7.00;;;;;;;5.50;91.49;97905.73;1626705;86;21221;-60
2022/09/29 01:55:04;;;;;;;9.85;7.80;;;;;;;5.43;91.18;97906.14;1622273;84;21070;-60
2022/09/29 01:57:51;;;;;;;11.40;9.15;;;;;;;5.32;91.00;97905.44;1623055;85;21791;-60
2022/09/29 02:00:21;;;;;;;9.53;8.35;;;;;;;5.26;91.28;97903.19;1621679;86;21150;-61
2022/09/29 02:02:53;;;;;;;14.28;8.98;;;;;;;5.25;91.54;97909.30;1628086;84;21925;-61
2022/09/29 02:05:37;;;;;;;10.00;8.95;;;;;;;5.24;91.58;97908.93;1630674;85;21152;-61
2022/09/29 02:08:21;;;;;;;10.08;8.28;;;;;;;5.22;91.58;97910.76;1624867;85;21138;-60
2022/09/29 02:11:01;;;;;;;10.18;9.05;;;;;;;5.20;91.41;97908.23;1623207;86;21102;-59
2022/09/29 02:13:33;;;;;;;8.95;7.85;;;;;;;5.12;91.44;97908.64;1653525;83;21031;-61
2022/09/29 02:16:02;;;;;;;9.68;8.53;;;;;;;5.06;91.38;97907.69;1663651;83;21952;-60
2022/09/29 02:18:46;;;;;;;9.28;8.30;;;;;;;5.02;91.46;97912.66;1665811;83;20983;-60
2022/09/29 02:21:13;;;;;;;10.30;8.25;;;;;;;4.97;91.44;97915.95;1668949;83;21090;-60
2022/09/29 02:23:40;;;;;;;7.78;6.67;;;;;;;4.95;91.49;97913.89;1675455;84;21037;-60
2022/09/29 02:26:07;;;;;;;8.80;7.05;;;;;;;4.89;91.40;97914.23;1685876;83;21060;-60
2022/09/29 02:28:34;;;;;;;6.97;6.28;;;;;;;4.84;91.40;97914.46;1680444;83;21083;-60
2022/09/29 02:31:01;;;;;;;10.00;5.30;;;;;;;4.77;91.34;97914.89;1673790;83;21006;-60
2022/09/29 02:33:27;;;;;;;9.00;6.22;;;;;;;4.70;91.28;97915.22;1674804;82;21090;-60
2022/09/29 02:36:16;;;;;;;18.03;7.43;;;;;;;4.63;91.24;97915.61;1686227;82;21017;-60
2022/09/29 02:39:08;;;;;;;8.65;6.00;;;;;;;4.57;91.26;97918.05;1580815;89;21215;-59
2022/09/29 02:41:49;;;;;;;7.67;6.30;;;;;;;4.53;91.38;97919.56;1590529;89;21990;-61
2022/09/29 02:44:33;;;;;;;8.88;5.90;;;;;;;4.52;91.55;97913.57;1588625;89;21150;-60
2022/09/29 02:47:25;;;;;;;6.95;5.22;;;;;;;4.51;91.57;97920.95;1620369;87;21200;-61
2022/09/29 02:50:15;;;;;;;5.50;5.00;;;;;;;4.48;91.63;97930.13;1624646;87;21059;-61
2022/09/29 02:53:00;;;;;;;8.95;5.62;;;;;;;4.49;91.65;97929.23;1625529;87;21091;-62
2022/09/29 02:55:47;;;;;;;10.32;6.10;;;;;;;4.45;91.61;97926.41;1622511;87;21180;-61
2022/09/29 02:58:33;;;;;;;8.43;6.37;;;;;;;4.45;91.64;97922.53;1622325;88;21128;-61
2022/09/29 03:01:00;;;;;;;7.08;5.70;;;;;;;4.47;91.94;97924.13;1620611;88;21638;-60
2022/09/29 03:03:27;;;;;;;9.33;6.28;;;;;;;4.49;92.03;97921.48;1621357;88;21585;-60
2022/09/29 03:05:53;;;;;;;8.95;6.25;;;;;;;4.49;91.96;97922.78;1622737;88;21160;-60
2022/09/29 03:08:20;;;;;;;10.43;6.42;;;;;;;4.49;91.94;97924.06;1618598;87;21148;-61
2022/09/29 03:10:47;;;;;;;10.43;6.50;;;;;;;4.50;92.03;97925.73;1620195;87;21392;-60
2022/09/29 03:13:13;;;;;;;10.32;7.67;;;;;;;4.53;92.14;97925.56;1621142;88;21727;-61
2022/09/29 03:15:40;;;;;;;8.20;6.80;;;;;;;4.59;92.53;97931.70;1660104;82;20994;-61
2022/09/29 03:18:07;;;;;;;8.48;6.62;;;;;;;4.61;92.50;97923.42;1715677;82;21009;-60
2022/09/29 03:20:34;;;;;;;8.18;7.10;;;;;;;4.63;92.42;97934.53;1696451;83;21106;-60
2022/09/29 03:23:00;;;;;;;8.10;7.30;;;;;;;4.64;92.31;97927.14;1666022;83;21220;-60
2022/09/29 03:25:27;;;;;;;7.40;6.70;;;;;;;4.64;92.28;97941.36;1702269;83;21043;-60
2022/09/29 03:27:54;;;;;;;10.15;6.72;;;;;;;4.63;92.18;97934.53;1685592;82;21069;-60
2022/09/29 03:30:22;;;;;;;6.53;5.80;;;;;;;4.62;92.22;97932.01;1709880;80;21092;-61
2022/09/29 03:32:49;;;;;;;7.60;6.25;;;;;;;4.62;92.30;97941.92;1717912;82;21149;-60
2022/09/29 03:35:16;;;;;;;7.92;6.87;;;;;;;4.63;92.32;97942.28;1708753;82;21614;-60
2022/09/29 03:37:42;;;;;;;17.52;7.03;;;;;;;4.63;92.46;97946.16;1707350;82;20984;-61
2022/09/29 03:40:10;;;;;;;6.87;6.23;;;;;;;4.66;92.48;97949.88;1671360;83;21685;-61
2022/09/29 03:42:37;;;;;;;7.35;6.65;;;;;;;4.67;92.57;97946.37;1695117;82;20937;-60
2022/09/29 03:45:04;;;;;;;9.60;6.30;;;;;;;4.68;92.61;97953.23;1680865;83;21161;-60
2022/09/29 03:47:31;;;;;;;7.28;6.60;;;;;;;4.68;92.56;97958.40;1685768;82;21086;-60
2022/09/29 03:49:58;;;;;;;8.83;6.85;;;;;;;4.68;92.44;97945.47;1693594;82;20970;-61
2022/09/29 03:52:24;;;;;;;10.75;6.45;;;;;;;4.78;92.38;97950.16;1691330;83;21049;-61
2022/09/29 03:54:52;;;;;;;8.28;6.75;;;;;;;4.70;92.47;97951.41;1672815;83;21605;-60
2022/09/29 03:57:18;;;;;;;8.53;6.58;;;;;;;4.69;92.51;97947.13;1704809;82;21157;-61
2022/09/29 03:59:45;;;;;;;10.30;6.80;;;;;;;4.71;92.55;97956.11;1674337;83;20949;-60
2022/09/29 04:02:12;;;;;;;7.72;6.15;;;;;;;4.71;92.67;97958.23;1689660;84;21590;-60
2022/09/29 04:04:40;;;;;;;11.00;6.85;;;;;;;4.71;92.62;97953.06;1673886;83;21040;-61
2022/09/29 04:07:06;;;;;;;12.80;6.97;;;;;;;4.70;92.51;97959.16;1659132;85;21033;-61
2022/09/29 04:09:33;;;;;;;7.78;6.70;;;;;;;4.68;92.55;97958.40;1663590;84;21905;-60
2022/09/29 04:12:00;;;;;;;7.33;6.65;;;;;;;4.67;92.58;97964.47;1679993;83;21669;-61
2022/09/29 04:14:27;;;;;;;11.28;6.75;;;;;;;4.66;92.56;97961.98;1677518;83;21082;-60
2022/09/29 04:16:54;;;;;;;8.23;6.90;;;;;;;4.64;92.61;97961.21;1692571;82;21565;-60
2022/09/29 04:19:20;;;;;;;8.03;7.17;;;;;;;4.62;92.67;97966.48;1713250;82;21055;-61
2022/09/29 04:21:47;;;;;;;11.43;7.80;;;;;;;4.64;92.73;97972.38;1716988;81;21300;-61
2022/09/29 04:24:14;;;;;;;12.20;7.53;;;;;;;4.63;92.70;97973.30;1720644;82;21574;-60
2022/09/29 04:26:41;;;;;;;11.80;8.00;;;;;;;4.65;92.83;97974.07;1703643;82;21776;-61
2022/09/29 04:29:08;;;;;;;12.03;7.62;;;;;;;4.66;92.82;97983.48;1705878;81;21090;-60
2022/09/29 04:31:34;;;;;;;8.53;7.43;;;;;;;4.68;92.87;97984.25;1711198;82;21580;-60
2022/09/29 04:34:01;;;;;;;8.33;7.47;;;;;;;4.68;92.88;97984.25;1672986;83;21442;-60
2022/09/29 04:36:28;;;;;;;10.15;7.62;;;;;;;4.71;92.97;97987.14;1667841;82;21259;-59
2022/09/29 04:38:55;;;;;;;9.20;7.23;;;;;;;4.74;93.06;97988.27;1680502;82;21105;-59
2022/09/29 04:41:22;;;;;;;10.03;8.18;;;;;;;4.76;93.05;97994.64;1696181;82;21092;-60
2022/09/29 04:43:49;;;;;;;10.65;7.97;;;;;;;4.77;93.08;97998.45;1690333;82;21065;-60
2022/09/29 04:46:15;;;;;;;9.67;8.67;;;;;;;4.79;93.18;98000.52;1708658;82;21452;-60
2022/09/29 04:48:43;;;;;;;11.17;7.70;;;;;;;4.83;93.21;98002.48;1706381;81;20970;-60
2022/09/29 04:51:09;;;;;;;10.18;8.03;;;;;;;4.87;93.33;98001.39;1711951;82;22256;-60
2022/09/29 04:53:36;;;;;;;9.73;8.73;;;;;;;4.91;93.23;98002.92;1710053;82;21573;-61
2022/09/29 04:56:06;;;;;;;11.15;8.48;;;;;;;4.96;93.36;97997.48;1672558;83;21492;-60
2022/09/29 04:58:34;;;;;;;11.15;8.68;;;;;;;5.03;93.45;98000.98;1691617;82;21097;-60
2022/09/29 05:01:07;;;;;;;;;;;;;;;5.08;93.42;98005.46;1691620;83;21536;-59
2022/09/29 05:03:35;;;;;;;12.63;9.28;;;;;;;5.13;93.30;98000.89;1672116;83;20091;-60
2022/09/29 05:06:02;;;;;;;11.25;8.65;;;;;;;5.16;93.37;97995.55;1673036;83;20993;-60
2022/09/29 05:08:29;;;;;;;9.28;8.38;;;;;;;5.26;93.48;97995.05;1676923;82;21128;-62
2022/09/29 05:10:56;;;;;;;8.93;7.65;;;;;;;5.34;93.41;97998.06;1673100;83;21108;-61
2022/09/29 05:13:23;;;;;;;8.60;7.80;;;;;;;5.42;93.33;98008.84;1684267;83;21025;-62
2022/09/29 05:15:54;;;;;;;10.05;8.20;;;;;;;5.47;93.18;98009.44;1668313;83;21070;-61
2022/09/29 05:18:21;;;;;;;14.33;7.12;;;;;;;5.53;93.12;98014.28;1690748;83;20993;-62
2022/09/29 05:20:48;;;;;;;10.85;8.35;;;;;;;5.64;93.28;98011.12;1718949;81;21108;-61
2022/09/29 05:23:15;;;;;;;9.77;8.77;;;;;;;6.02;93.87;98010.34;1673216;83;21117;-61
2022/09/29 05:25:42;;;;;;;8.30;7.00;;;;;;;6.70;94.56;98007.75;1677580;83;21071;-61
2022/09/29 05:28:11;;;;;;;7.12;5.65;;;;;;;7.35;94.44;98004.72;1708888;81;21067;-60
2022/09/29 05:30:38;;;;;;;6.45;4.55;;;;;;;7.76;93.84;98006.04;1709137;82;21533;-60
2022/09/29 05:33:05;;;;;;;5.20;4.70;;;;;;;8.40;94.51;98004.99;1666250;83;21026;-61
2022/09/29 05:35:32;;;;;;;4.67;4.00;;;;;;;8.96;93.83;98015.12;1674956;83;22421;-61
2022/09/29 05:37:58;;;;;;;4.78;4.37;;;;;;;9.30;92.56;98014.97;1710282;82;21038;-61
2022/09/29 05:40:25;;;;;;;4.80;4.27;;;;;;;9.45;91.74;98011.77;1708647;82;21102;-61
2022/09/29 05:42:52;;;;;;;7.22;5.70;;;;;;;9.74;91.61;98011.48;1711894;82;21752;-62
2022/09/29 05:45:19;;;;;;;6.78;6.00;;;;;;;10.23;91.26;98005.34;1710251;82;21043;-61
2022/09/29 05:47:45;;;;;;;7.57;6.53;;;;;;;10.45;91.26;98001.55;1716200;82;21641;-62
2022/09/29 05:50:13;;;;;;;11.28;6.60;;;;;;;10.91;91.70;98005.09;1710496;82;20911;-62
2022/09/29 05:52:40;;;;;;;10.00;6.05;;;;;;;11.21;90.50;98003.22;1722517;82;20964;-61
2022/09/29 05:55:09;;;;;;;7.37;5.50;;;;;;;11.46;90.06;98009.17;1689610;83;21017;-62
2022/09/29 05:57:36;;;;;;;6.67;5.50;;;;;;;11.36;89.37;98011.16;1693437;83;21076;-62
2022/09/29 06:00:06;;;;;;;7.28;5.65;;;;;;;11.16;89.38;98017.11;1688775;82;21247;-61
2022/09/29 06:02:33;;;;;;;7.72;5.12;;;;;;;10.94;89.22;98017.43;1673294;83;21022;-62
2022/09/29 06:05:00;;;;;;;8.75;5.53;;;;;;;10.73;89.15;98020.37;1724115;81;21660;-61
2022/09/29 06:07:27;;;;;;;10.30;5.15;;;;;;;10.37;89.71;98020.85;1718103;82;21369;-62
2022/09/29 06:09:53;;;;;;;8.30;5.00;;;;;;;10.14;90.00;98020.34;1720139;82;20992;-61
2022/09/29 06:12:20;;;;;;;9.48;5.22;;;;;;;9.99;90.35;98019.20;1701319;82;21472;-61
2022/09/29 06:14:47;;;;;;;8.63;4.95;;;;;;;9.90;90.52;98025.09;1684750;83;20982;-62
2022/09/29 06:17:14;;;;;;;6.33;5.15;;;;;;;9.82;90.75;98030.02;1697861;83;20992;-61
2022/09/29 06:19:41;;;;;;;6.58;5.78;;;;;;;9.76;90.73;98030.45;1693832;83;21068;-61
2022/09/29 06:22:08;;;;;;;6.85;5.22;;;;;;;9.67;90.46;98033.72;1714569;82;21007;-62
2022/09/29 06:24:35;;;;;;;5.25;4.78;;;;;;;9.66;90.65;98034.64;1704419;82;21690;-62
2022/09/29 06:27:01;;;;;;;5.33;4.83;;;;;;;9.79;90.81;98038.05;1675665;83;21042;-61
2022/09/29 06:29:28;;;;;;;6.60;5.13;;;;;;;10.34;92.22;98038.52;1691343;83;21333;-62
2022/09/29 06:31:55;;;;;;;6.12;4.87;;;;;;;10.83;91.28;98033.08;1708705;82;21683;-61
2022/09/29 06:34:22;;;;;;;5.20;4.70;;;;;;;11.10;90.73;98034.56;1719289;82;21613;-62
2022/09/29 06:39:34;;;;;;;4.62;4.15;;;;;;;11.40;89.50;98037.44;1721342;82;21637;-61
2022/09/29 06:42:02;;;;;;;;;;;;;;;11.65;90.13;98040.76;1722588;82;21021;-62
2022/09/29 06:44:29;;;;;;;;;;;;;;;11.98;90.21;98039.05;1720164;81;20162;-61
2022/09/29 06:46:57;;;;;;;5.83;4.72;;;;;;;12.26;89.75;98039.80;1735121;82;20073;-61
2022/09/29 06:49:24;;;;;;;5.42;4.92;;;;;;;12.60;90.14;98048.83;1729110;81;21144;-61
2022/09/29 06:51:51;;;;;;;5.10;4.60;;;;;;;12.75;89.00;98048.06;1724393;82;21140;-61
2022/09/29 06:54:22;;;;;;;5.00;4.50;;;;;;;12.94;89.46;98053.92;1680229;84;21082;-62
2022/09/29 06:56:52;;;;;;;4.70;4.15;;;;;;;13.07;89.74;98056.33;1682025;83;21052;-61
2022/09/29 06:59:20;;;;;;;4.78;4.08;;;;;;;13.18;89.34;98055.77;1670793;84;21587;-62
2022/09/29 07:01:48;;;;;;;5.35;4.80;;;;;;;13.30;89.15;98054.41;1675839;84;21147;-62
2022/09/29 07:04:15;;;;;;;5.72;5.08;;;;;;;13.30;89.23;98057.03;1711653;82;20949;-61
2022/09/29 07:06:42;;;;;;;6.37;5.60;;;;;;;13.05;88.48;98066.95;1684254;83;20894;-61
2022/09/29 07:09:14;;;;;;;6.08;5.33;;;;;;;12.72;88.36;98067.48;1695716;83;21000;-61
2022/09/29 07:11:39;;;;;;;7.53;5.83;;;;;;;12.44;88.55;98070.22;1709860;83;21577;-61
2022/09/29 07:14:05;;;;;;;6.55;5.72;;;;;;;12.15;88.89;98066.48;1709366;82;21089;-62
2022/09/29 07:16:32;;;;;;;8.15;6.03;;;;;;;11.94;89.34;98074.27;1712428;83;20992;-61
2022/09/29 07:18:59;;;;;;;5.63;5.10;;;;;;;11.92;90.24;98069.62;1687488;83;21093;-61
2022/09/29 07:21:25;;;;;;;7.33;5.70;;;;;;;11.88;89.78;98070.83;1694549;84;20927;-61
2022/09/29 07:23:52;;;;;;;6.85;5.80;;;;;;;11.75;89.53;98067.83;1675211;84;22156;-61
2022/09/29 07:26:19;;;;;;;7.57;6.77;;;;;;;11.68;89.53;98072.34;1705806;83;21081;-61
2022/09/29 07:28:47;;;;;;;6.85;5.80;;;;;;;11.60;89.65;98074.27;1703744;84;21615;-61
2022/09/29 07:31:17;;;;;;;6.95;5.83;;;;;;;11.58;89.84;98078.77;1701155;83;21078;-61
2022/09/29 07:33:46;;;;;;;6.40;5.75;;;;;;;11.62;90.16;98077.56;1703718;83;21395;-61
2022/09/29 07:36:16;;;;;;;6.78;6.05;;;;;;;11.61;89.77;98081.14;1685673;83;21152;-60
2022/09/29 07:38:46;;;;;;;6.45;5.83;;;;;;;11.62;89.78;98083.66;1669220;84;21679;-60
2022/09/29 07:41:12;;;;;;;7.22;6.22;;;;;;;11.68;89.75;98087.58;1673495;83;21033;-62
2022/09/29 07:43:39;;;;;;;7.60;6.90;;;;;;;11.70;89.65;98092.19;1667593;83;21064;-61
2022/09/29 07:46:07;;;;;;;6.55;5.95;;;;;;;11.62;88.95;98095.87;1671995;84;21135;-61
2022/09/29 07:48:35;;;;;;;6.20;5.60;;;;;;;11.63;89.51;98092.33;1671859;84;21152;-61
2022/09/29 07:51:06;;;;;;;6.78;6.17;;;;;;;11.62;89.21;98095.42;1673803;84;21135;-60
2022/09/29 07:53:35;;;;;;;6.85;6.20;;;;;;;11.68;89.38;98092.80;1668415;84;21073;-61
2022/09/29 07:56:16;;;;;;;7.10;6.47;;;;;;;11.72;89.28;98096.83;1672720;84;20918;-61
2022/09/29 07:58:48;;;;;;;6.40;5.80;;;;;;;11.99;90.07;98098.28;1669769;82;20966;-61
2022/09/29 08:01:17;;;;;;;6.80;6.10;;;;;;;12.39;90.35;98093.30;1683466;83;20993;-61
2022/09/29 08:03:51;;;;;;;6.28;5.60;;;;;;;12.76;90.36;98098.98;1681989;82;21229;-60
2022/09/29 08:06:18;;;;;;;8.05;5.25;;;;;;;12.93;89.13;98107.25;1708060;82;21100;-61
2022/09/29 08:08:46;;;;;;;5.65;5.10;;;;;;;12.98;89.07;98098.54;1702597;81;22375;-61
2022/09/29 08:11:14;;;;;;;;;;;;;;;12.98;88.87;98107.70;1715080;82;21082;-61
2022/09/29 08:13:41;;;;;;;6.67;5.33;;;;;;;12.90;88.53;98115.37;1685127;83;20435;-61
2022/09/29 08:16:12;;;;;;;5.85;5.28;;;;;;;12.81;88.53;98113.52;1687604;83;21754;-61
2022/09/29 08:18:39;;;;;;;5.70;5.20;;;;;;;12.75;88.39;98116.98;1689059;83;21005;-61
2022/09/29 08:21:06;;;;;;;5.30;4.90;;;;;;;12.84;88.79;98119.32;1682751;83;21465;-61
2022/09/29 08:23:39;;;;;;;8.25;5.58;;;;;;;12.92;88.43;98128.69;1706152;82;21093;-61
2022/09/29 08:26:14;;;;;;;6.00;5.40;;;;;;;12.82;88.02;98128.26;1688188;83;21530;-61
2022/09/29 08:28:42;;;;;;;5.97;5.35;;;;;;;12.76;88.12;98125.66;1686554;83;22221;-61
2022/09/29 08:31:21;;;;;;;6.95;4.97;;;;;;;12.87;88.48;98135.27;1685807;83;21009;-61
2022/09/29 08:33:48;;;;;;;6.12;5.53;;;;;;;13.06;88.68;98130.66;1688258;83;21056;-61
2022/09/29 08:36:15;;;;;;;8.05;6.22;;;;;;;12.87;87.42;98141.33;1693753;83;21003;-61
2022/09/29 08:38:44;;;;;;;;;;;;;;;12.54;86.94;98146.20;1698821;82;21621;-60
2022/09/29 08:41:37;;;;;;;6.95;6.35;;;;;;;12.34;87.19;98150.90;1690985;83;21896;-61
2022/09/29 08:44:27;;;;;;;6.78;6.08;;;;;;;12.12;87.07;98159.13;1672552;84;21104;-61
2022/09/29 08:47:17;;;;;;;9.40;6.20;;;;;;;11.82;86.92;98169.70;1683721;83;21603;-60
2022/09/29 08:49:54;;;;;;;8.15;5.85;;;;;;;11.67;87.27;98168.24;1681520;84;21042;-61
2022/09/29 08:52:36;;;;;;;5.37;4.87;;;;;;;11.73;87.49;98166.46;1732852;81;21020;-60
2022/09/29 08:55:21;;;;;;;5.37;4.87;;;;;;;11.88;87.79;98172.83;1736922;80;21935;-60
2022/09/29 08:57:55;;;;;;;5.35;4.65;;;;;;;12.26;88.30;98176.36;1677191;84;21189;-60
2022/09/29 09:00:30;;;;;;;5.53;5.03;;;;;;;12.52;87.51;98169.91;1670716;84;21026;-61
2022/09/29 09:03:31;;;;;;;5.85;5.30;;;;;;;12.57;86.72;98178.68;1673192;84;21038;-60
2022/09/29 09:06:31;;;;;;;5.30;4.72;;;;;;;12.65;86.94;98181.52;1675596;84;21045;-59
2022/09/29 09:09:15;;;;;;;5.72;4.80;;;;;;;12.94;87.25;98182.28;1685676;84;21632;-61
2022/09/29 09:12:02;;;;;;;5.25;4.58;;;;;;;13.09;87.23;98188.88;1672122;84;21172;-61
2022/09/29 09:14:44;;;;;;;;;;;;;;;13.16;86.75;98188.74;1696862;83;21105;-60
2022/09/29 09:17:21;;;;;;;5.45;4.95;;;;;;;13.16;86.45;98195.30;1695726;82;20094;-59
2022/09/29 09:20:12;;;;;;;9.23;4.75;;;;;;;13.16;86.02;98197.91;1684741;83;21551;-60
2022/09/29 09:22:56;;;;;;;6.67;5.08;;;;;;;13.21;86.57;98193.10;1734666;81;21597;-59
2022/09/29 09:25:33;;;;;;;5.20;4.70;;;;;;;13.10;86.48;98191.84;1680377;83;21243;-60
2022/09/29 09:28:27;;;;;;;5.53;4.58;;;;;;;13.13;86.61;98195.52;1741116;81;20957;-60
2022/09/29 09:31:23;;;;;;;4.85;4.45;;;;;;;13.21;86.51;98198.34;1736124;80;21056;-59
2022/09/29 09:34:04;;;;;;;7.07;4.10;;;;;;;13.11;85.91;98201.87;1685233;84;21071;-61
2022/09/29 09:36:35;;;;;;;7.12;4.67;;;;;;;13.09;86.32;98203.29;1623581;84;22444;-59
2022/09/29 09:39:22;;;;;;;5.10;4.60;;;;;;;13.04;85.94;98201.52;1625688;87;21800;-60
2022/09/29 09:41:53;;;;;;;5.85;5.05;;;;;;;12.98;85.62;98209.88;1553185;90;21160;-60
2022/09/29 09:44:28;;;;;;;4.60;4.20;;;;;;;12.91;85.86;98215.25;1553140;91;21091;-60
2022/09/29 09:46:59;;;;;;;5.75;4.92;;;;;;;12.92;85.91;98219.07;1517466;93;21221;-60
2022/09/29 09:49:40;;;;;;;4.97;4.53;;;;;;;12.86;85.71;98214.81;1511028;92;21207;-60
2022/09/29 09:52:23;;;;;;;4.50;4.03;;;;;;;12.78;85.56;98215.91;1516243;92;21130;-60
2022/09/29 09:55:00;;;;;;;4.47;4.08;;;;;;;12.79;85.71;98217.56;1517218;93;21189;-61
2022/09/29 09:57:47;;;;;;;4.92;4.12;;;;;;;12.89;85.90;98225.05;1537596;92;21157;-60
2022/09/29 10:00:24;;;;;;;4.58;3.75;;;;;;;12.86;85.34;98226.60;1541433;92;21674;-61
2022/09/29 10:02:54;;;;;;;6.62;3.90;;;;;;;12.75;84.88;98220.42;1518831;92;21185;-61
2022/09/29 10:05:38;;;;;;;5.20;4.10;;;;;;;12.69;85.17;98228.78;1533395;92;21150;-61
2022/09/29 10:08:13;;;;;;;4.70;4.30;;;;;;;12.72;85.00;98233.77;1541614;90;21650;-60
2022/09/29 10:10:42;;;;;;;5.45;4.28;;;;;;;12.75;85.10;98226.97;1504694;93;21145;-60
2022/09/29 10:13:14;;;;;;;5.55;3.60;;;;;;;12.89;85.04;98237.66;1560969;87;21054;-60
2022/09/29 10:15:55;;;;;;;7.70;4.03;;;;;;;12.98;85.02;98234.77;1622650;87;21538;-60
2022/09/29 10:18:39;;;;;;;5.75;3.58;;;;;;;13.03;84.75;98237.86;1634004;85;21551;-60
2022/09/29 10:21:29;;;;;;;3.50;3.20;;;;;;;13.10;84.87;98240.31;1665656;84;21512;-61
2022/09/29 10:23:59;;;;;;;5.37;3.70;;;;;;;13.28;85.01;98247.69;1672061;85;21121;-61
2022/09/29 10:26:37;;;;;;;4.33;3.72;;;;;;;13.46;84.80;98238.30;1662475;85;21117;-60
2022/09/29 10:29:30;;;;;;;4.72;3.80;;;;;;;13.54;84.37;98246.37;1667662;85;21111;-60
2022/09/29 10:32:13;;;;;;;3.87;3.47;;;;;;;13.48;84.02;98239.50;1664451;84;21051;-61
2022/09/29 10:34:54;;;;;;;4.78;3.62;;;;;;;13.71;84.50;98244.13;1661760;85;21090;-61
2022/09/29 10:37:34;;;;;;;5.25;3.52;;;;;;;14.04;84.47;98246.53;1627416;85;21629;-60
2022/09/29 10:40:13;;;;;;;4.03;3.22;;;;;;;14.28;83.75;98245.39;1639996;86;37518;-61
2022/09/29 10:42:48;;;;;;;3.55;3.25;;;;;;;14.40;83.78;98241.73;1652022;86;21505;-60
2022/09/29 10:45:22;;;;;;;3.55;3.22;;;;;;;14.74;83.66;98236.19;1651011;85;21037;-61
2022/09/29 10:48:00;;;;;;;3.83;2.67;;;;;;;14.85;83.33;98237.38;1651338;85;21062;-61
2022/09/29 10:50:31;;;;;;;4.90;2.90;;;;;;;15.11;83.42;98238.17;1650990;85;21050;-61
2022/09/29 10:53:18;;;;;;;2.67;2.27;;;;;;;15.02;82.12;98237.69;1651664;85;21567;-61
2022/09/29 10:55:55;;;;;;;2.90;2.70;;;;;;;15.03;82.64;98245.91;1650732;85;21062;-61
2022/09/29 10:58:34;;;;;;;5.00;2.87;;;;;;;15.17;82.87;98244.19;1650200;85;21117;-60
2022/09/29 11:01:09;;;;;;;3.22;2.60;;;;;;;15.14;82.52;98244.47;1651603;85;21568;-62
2022/09/29 11:04:02;;;;;;;3.00;2.40;;;;;;;15.06;82.07;98245.63;1652829;85;21103;-60
2022/09/29 11:06:30;;;;;;;2.52;2.33;;;;;;;15.06;82.37;98253.52;1658252;85;20979;-60
2022/09/29 11:09:05;;;;;;;3.85;2.35;;;;;;;15.19;82.73;98254.09;1656053;85;21074;-61
2022/09/29 11:11:38;;;;;;;3.58;2.12;;;;;;;15.14;82.03;98256.30;1639074;85;21578;-60
2022/09/29 11:14:09;;;;;;;2.98;2.27;;;;;;;15.16;82.17;98258.31;1624887;85;21129;-60
2022/09/29 11:16:37;;;;;;;4.70;2.40;;;;;;;15.35;82.18;98264.08;1650510;85;22008;-61
2022/09/29 11:19:13;;;;;;;2.37;2.05;;;;;;;15.49;81.59;98258.85;1649915;85;21768;-62
2022/09/29 11:21:57;;;;;;;2.70;1.98;;;;;;;15.24;80.85;98264.21;1649891;85;21167;-62
2022/09/29 11:24:44;;;;;;;2.15;1.95;;;;;;;14.98;80.70;98268.19;1650390;85;21196;-60
2022/09/29 11:31:29;;;;;;;2.98;2.37;;;;;;;14.36;79.97;98281.02;1646661;84;21137;-59
2022/09/29 11:34:31;;;;;;;3.62;2.05;;;;;;;14.01;80.15;98286.16;1647753;84;21085;-61
2022/09/29 11:37:21;;;;;;;2.98;1.98;;;;;;;13.79;80.26;98286.30;1677468;82;21211;-62
2022/09/29 11:40:09;;;;;;;2.00;1.60;;;;;;;13.77;79.62;98282.96;1655795;83;21660;-63
2022/09/29 11:42:49;;;;;;;2.08;1.20;;;;;;;13.72;80.07;98290.38;1650032;84;21111;-63
2022/09/29 11:45:22;;;;;;;2.30;1.60;;;;;;;13.84;80.22;98295.45;1665386;83;21070;-63
2022/09/29 11:48:34;;;;;;;2.72;1.37;;;;;;;13.93;79.81;98296.95;1664794;84;21704;-62
2022/09/29 11:51:35;;;;;;;3.90;1.87;;;;;;;13.94;79.75;98305.99;1659318;83;22238;-63
2022/09/29 11:54:19;;;;;;;3.80;1.40;;;;;;;14.24;79.89;98299.96;1655408;84;21056;-61
2022/09/29 11:57:20;;;;;;;2.00;1.40;;;;;;;14.17;78.95;98306.71;1658390;83;21104;-62
2022/09/29 11:59:58;;;;;;;1.70;1.60;;;;;;;14.36;79.79;98298.08;1663784;83;20994;-62
2022/09/29 12:04:49;;;;;;;1.45;1.00;;;;;;;14.85;78.91;98297.00;1855157;76;22648;-61
2022/09/29 12:07:43;;;;;;;8.38;2.22;;;;;;;14.82;78.93;98300.72;1814820;77;21011;-61
2022/09/29 12:10:24;;;;;;;1.40;1.30;;;;;;;14.88;78.43;98306.75;1787774;78;21500;-62
2022/09/29 12:13:03;;;;;;;4.45;1.35;;;;;;;14.89;78.23;98304.95;1791319;78;20982;-61
2022/09/29 12:15:41;;;;;;;1.72;1.40;;;;;;;14.96;78.48;98306.91;1786869;78;21040;-61
2022/09/29 12:18:16;;;;;;;3.40;1.80;;;;;;;14.99;78.40;98313.70;1786418;78;20962;-62